Time;durP1;ratioP1;P1;durP2;ratioP2;P2;SDS_P1;SDS_P2;PMS_P1;PMS_P2;Temp;Humidity;BMP_temperature;BMP_pressure;BME280_temperature;BME280_humidity;BME280_pressure;Samples;Min_cycle;Max_cycle;Signal;HPM_P1;HPM_P2
2024/04/22 00:01:16;;;;;;;3.97;2.97;;;11.80;81.30;;;;;;5343165;26;20574;-41
2024/04/22 00:03:47;;;;;;;3.80;2.67;;;11.70;81.20;;;;;;5354232;26;20935;-42
2024/04/22 00:06:13;;;;;;;3.87;3.07;;;11.80;81.50;;;;;;5384631;26;20477;-41
2024/04/22 00:08:41;;;;;;;3.53;2.70;;;11.70;81.40;;;;;;5357465;26;20480;-42
2024/04/22 00:11:10;;;;;;;4.07;3.07;;;11.70;81.40;;;;;;5372066;26;20584;-42
2024/04/22 00:13:55;;;;;;;4.60;2.70;;;11.70;81.40;;;;;;5356691;26;20472;-40
2024/04/22 00:16:21;;;;;;;4.03;3.20;;;11.70;81.50;;;;;;5356302;26;20465;-43
2024/04/22 00:18:48;;;;;;;4.50;2.77;;;11.70;81.60;;;;;;5349171;26;20585;-42
2024/04/22 00:21:16;;;;;;;5.27;3.03;;;11.70;81.60;;;;;;5344752;26;20544;-40
2024/04/22 00:23:45;;;;;;;4.10;2.70;;;11.70;81.60;;;;;;5348555;26;20540;-41
2024/04/22 00:26:19;;;;;;;3.50;3.00;;;11.70;81.70;;;;;;5343562;26;20458;-41
2024/04/22 00:29:03;;;;;;;3.40;3.10;;;11.70;81.80;;;;;;5355223;26;20532;-42
2024/04/22 00:31:29;;;;;;;3.57;2.73;;;11.60;81.60;;;;;;5357508;26;20527;-38
2024/04/22 00:33:55;;;;;;;3.70;2.50;;;11.70;81.90;;;;;;5347639;26;20530;-40
2024/04/22 00:36:24;;;;;;;4.37;3.27;;;11.70;81.90;;;;;;5347390;26;20468;-42
2024/04/22 00:38:50;;;;;;;4.20;3.10;;;11.60;81.80;;;;;;5356175;26;20528;-42
2024/04/22 00:41:16;;;;;;;3.87;2.80;;;11.60;81.80;;;;;;5355952;26;20460;-42
2024/04/22 00:43:45;;;;;;;4.00;2.73;;;11.60;81.80;;;;;;5358191;26;20473;-41
2024/04/22 00:46:11;;;;;;;4.40;3.10;;;11.60;82.60;;;;;;5354801;26;21091;-40
2024/04/22 00:48:38;;;;;;;3.17;2.60;;;11.60;81.90;;;;;;5357047;26;20453;-42
2024/04/22 00:51:07;;;;;;;2.93;2.67;;;11.60;81.90;;;;;;5355978;26;20468;-42
2024/04/22 00:53:35;;;;;;;3.07;2.77;;;11.60;82.00;;;;;;5378158;26;20529;-42
2024/04/22 00:56:04;;;;;;;3.70;3.23;;;11.60;82.00;;;;;;5325222;26;20472;-39
2024/04/22 00:58:30;;;;;;;3.60;3.10;;;11.60;82.00;;;;;;5348735;26;20516;-42
2024/04/22 01:00:59;;;;;;;2.70;2.50;;;11.60;82.00;;;;;;5341036;26;21505;-42
2024/04/22 01:03:28;;;;;;;4.83;2.97;;;11.50;81.90;;;;;;5345921;26;21470;-41
2024/04/22 01:06:02;;;;;;;2.87;2.67;;;11.50;81.90;;;;;;5346424;26;21049;-39
2024/04/22 01:08:32;;;;;;;3.37;2.70;;;11.50;81.90;;;;;;5345141;26;20522;-40
2024/04/22 01:11:04;;;;;;;3.87;3.10;;;11.50;81.90;;;;;;5338497;26;20534;-42
2024/04/22 01:13:41;;;;;;;3.47;3.07;;;11.50;81.90;;;;;;5302584;26;20510;-42
2024/04/22 01:16:13;;;;;;;3.00;2.60;;;11.50;82.00;;;;;;5373922;26;20469;-40
2024/04/22 01:18:39;;;;;;;2.87;2.63;;;11.50;82.10;;;;;;5334679;26;20505;-40
2024/04/22 01:21:14;;;;;;;3.40;2.67;;;11.50;82.10;;;;;;5364236;26;20525;-42
2024/04/22 01:23:43;;;;;;;3.70;2.73;;;11.50;82.10;;;;;;5341827;26;20472;-42
2024/04/22 01:26:13;;;;;;;2.67;2.47;;;11.50;82.10;;;;;;5345188;26;20476;-42
2024/04/22 01:28:39;;;;;;;4.33;2.67;;;11.40;82.00;;;;;;5326231;26;20472;-42
2024/04/22 01:31:12;;;;;;;3.30;3.00;;;11.40;82.10;;;;;;5343142;26;21103;-42
2024/04/22 01:33:43;;;;;;;2.90;2.70;;;11.40;82.10;;;;;;5329644;26;20517;-39
2024/04/22 01:36:09;;;;;;;3.70;2.90;;;11.40;82.10;;;;;;5327736;26;20910;-42
2024/04/22 01:38:44;;;;;;;4.37;2.93;;;11.40;82.20;;;;;;5337487;26;20473;-42
2024/04/22 01:41:13;;;;;;;2.87;2.57;;;11.40;82.20;;;;;;5319034;26;20469;-39
2024/04/22 01:43:39;;;;;;;3.97;2.80;;;11.40;82.20;;;;;;5325666;26;20492;-42
2024/04/22 01:46:08;;;;;;;3.70;2.60;;;11.40;82.20;;;;;;5384046;26;20578;-41
2024/04/22 01:48:35;;;;;;;3.33;2.97;;;11.40;82.20;;;;;;5355845;26;21239;-42
2024/04/22 01:51:01;;;;;;;3.53;2.70;;;11.40;82.30;;;;;;5350463;26;20464;-42
2024/04/22 01:53:29;;;;;;;3.03;2.67;;;11.30;82.20;;;;;;5378135;26;20512;-42
2024/04/22 01:55:59;;;;;;;2.60;2.40;;;11.30;82.10;;;;;;5347131;26;20464;-41
2024/04/22 01:58:25;;;;;;;3.23;2.30;;;11.30;82.30;;;;;;5357043;26;20576;-42
2024/04/22 02:01:08;;;;;;;4.27;3.03;;;11.30;82.20;;;;;;5355791;26;21054;-41
2024/04/22 02:03:38;;;;;;;8.70;2.77;;;11.30;82.20;;;;;;5297914;26;21320;-42
2024/04/22 02:06:05;;;;;;;3.73;2.60;;;11.30;82.30;;;;;;5344477;26;20519;-42
2024/04/22 02:08:33;;;;;;;2.97;2.70;;;11.30;82.30;;;;;;5352687;26;20581;-42
2024/04/22 02:11:05;;;;;;;3.77;2.47;;;11.30;82.40;;;;;;5315298;26;20476;-41
2024/04/22 02:13:56;;;;;;;2.97;2.70;;;11.30;82.40;;;;;;5318182;26;20541;-42
2024/04/22 02:16:25;;;;;;;2.83;2.47;;;11.20;82.30;;;;;;5352888;26;20579;-41
2024/04/22 02:18:58;;;;;;;4.50;2.83;;;11.20;82.30;;;;;;5383377;26;20469;-42
2024/04/22 02:21:28;;;;;;;3.50;2.70;;;11.20;82.30;;;;;;5356775;26;20489;-42
2024/04/22 02:23:57;;;;;;;3.13;2.40;;;11.20;82.30;;;;;;5347168;26;21501;-42
2024/04/22 02:26:26;;;;;;;2.70;2.37;;;11.20;82.30;;;;;;5344478;26;20604;-42
2024/04/22 02:28:55;;;;;;;3.70;2.73;;;11.20;82.30;;;;;;5318175;26;21529;-42
2024/04/22 02:31:25;;;;;;;3.53;2.53;;;11.20;82.40;;;;;;5348969;26;21557;-42
2024/04/22 02:33:53;;;;;;;3.00;2.53;;;11.10;82.30;;;;;;5300551;26;20761;-42
2024/04/22 02:36:27;;;;;;;3.53;2.13;;;11.20;82.30;;;;;;5355677;26;20473;-41
2024/04/22 02:38:54;;;;;;;2.60;2.40;;;11.10;82.30;;;;;;5343844;26;20465;-42
2024/04/22 02:41:20;;;;;;;2.87;2.57;;;11.10;82.30;;;;;;5343606;26;20553;-41
2024/04/22 02:43:49;;;;;;;2.97;2.40;;;11.10;82.30;;;;;;5352487;26;20465;-40
2024/04/22 02:46:18;;;;;;;2.70;2.20;;;11.10;82.40;;;;;;5344102;26;20448;-40
2024/04/22 02:48:55;;;;;;;3.80;2.67;;;11.10;82.40;;;;;;5349401;26;21440;-42
2024/04/22 02:51:26;;;;;;;2.60;2.40;;;11.10;82.50;;;;;;5356197;26;20477;-42
2024/04/22 02:53:52;;;;;;;3.17;2.60;;;11.10;82.50;;;;;;5348379;26;20468;-42
2024/04/22 02:56:25;;;;;;;2.67;2.40;;;11.10;82.60;;;;;;5315652;26;20462;-41
2024/04/22 02:58:52;;;;;;;3.10;2.43;;;11.00;82.50;;;;;;5342882;26;20591;-40
2024/04/22 03:01:19;;;;;;;3.00;2.67;;;11.10;82.60;;;;;;5345524;26;20514;-42
2024/04/22 03:03:45;;;;;;;2.97;2.40;;;11.00;82.60;;;;;;5348635;26;20551;-42
2024/04/22 03:06:15;;;;;;;2.53;2.33;;;11.00;82.60;;;;;;5334488;26;20494;-42
2024/04/22 03:08:42;;;;;;;2.80;2.60;;;11.00;82.60;;;;;;5327885;26;20480;-42
2024/04/22 03:11:15;;;;;;;3.33;2.90;;;11.00;82.60;;;;;;5331254;26;21318;-42
2024/04/22 03:13:45;;;;;;;2.80;2.60;;;11.00;82.60;;;;;;5379655;26;20464;-41
2024/04/22 03:16:12;;;;;;;4.70;2.57;;;11.00;82.70;;;;;;5285322;26;20495;-42
2024/04/22 03:18:42;;;;;;;3.37;2.83;;;11.00;82.70;;;;;;5356614;26;20464;-41
2024/04/22 03:21:24;;;;;;;4.63;2.93;;;11.00;82.80;;;;;;5328527;26;20916;-42
2024/04/22 03:24:10;;;;;;;2.83;2.53;;;11.00;82.90;;;;;;5350464;26;20460;-40
2024/04/22 03:26:42;;;;;;;2.53;2.33;;;11.00;82.90;;;;;;5333070;26;20890;-41
2024/04/22 03:29:15;;;;;;;3.00;2.70;;;11.00;83.00;;;;;;5333797;26;20449;-38
2024/04/22 03:31:44;;;;;;;2.87;2.60;;;10.90;82.90;;;;;;5332885;26;20520;-42
2024/04/22 03:34:20;;;;;;;3.80;2.60;;;10.90;83.00;;;;;;5351222;26;20916;-42
2024/04/22 03:36:49;;;;;;;2.97;2.30;;;10.90;83.00;;;;;;5357466;26;20581;-42
2024/04/22 03:39:23;;;;;;;4.20;2.37;;;10.90;83.10;;;;;;5356404;26;20525;-42
2024/04/22 03:41:50;;;;;;;3.87;2.90;;;10.90;83.10;;;;;;5354477;26;20492;-42
2024/04/22 03:44:17;;;;;;;5.00;3.10;;;10.90;83.20;;;;;;5352985;26;20464;-42
2024/04/22 03:52:43;;;;;;;3.17;2.70;;;10.90;83.30;;;;;;5293524;26;20522;-42
2024/04/22 03:55:13;;;;;;;3.40;2.60;;;10.90;83.50;;;;;;5337599;26;21267;-42
2024/04/22 03:57:43;;;;;;;2.93;2.67;;;10.80;83.40;;;;;;5343384;26;20560;-41
2024/04/22 04:00:10;;;;;;;3.60;2.77;;;10.90;83.60;;;;;;5352433;26;20468;-42
2024/04/22 04:02:43;;;;;;;3.20;2.90;;;10.90;83.70;;;;;;5337683;26;20468;-42
2024/04/22 04:05:11;;;;;;;3.30;2.73;;;10.90;83.70;;;;;;5378240;26;20555;-42
2024/04/22 04:07:40;;;;;;;3.00;2.67;;;10.80;83.60;;;;;;5335684;26;20481;-41
2024/04/22 04:10:14;;;;;;;3.80;3.17;;;10.90;83.80;;;;;;5348282;26;20480;-41
2024/04/22 04:12:40;;;;;;;3.03;2.73;;;10.80;83.80;;;;;;5335213;26;20592;-40
2024/04/22 04:15:10;;;;;;;2.87;2.57;;;10.80;83.80;;;;;;5343544;26;21045;-42
2024/04/22 04:17:40;;;;;;;3.77;3.37;;;10.80;83.80;;;;;;5355817;26;20547;-40
2024/04/22 04:20:13;;;;;;;3.10;2.57;;;10.80;83.90;;;;;;5337827;26;20572;-42
2024/04/22 04:22:39;;;;;;;3.40;3.07;;;10.80;83.90;;;;;;5334269;26;20978;-42
2024/04/22 04:25:10;;;;;;;3.83;2.60;;;10.80;84.00;;;;;;5348178;26;20533;-41
2024/04/22 04:27:39;;;;;;;3.73;2.93;;;10.80;84.00;;;;;;5348370;26;20472;-40
2024/04/22 04:30:05;;;;;;;2.90;2.60;;;10.80;84.00;;;;;;5355729;26;20453;-42
2024/04/22 04:32:31;;;;;;;3.27;2.90;;;10.80;84.10;;;;;;5331871;26;20604;-42
2024/04/22 04:35:01;;;;;;;3.90;3.40;;;10.80;84.20;;;;;;5346187;26;20456;-40
2024/04/22 04:37:28;;;;;;;3.10;2.67;;;10.80;84.20;;;;;;5346696;26;20466;-42
2024/04/22 04:39:54;;;;;;;4.80;3.57;;;10.70;84.10;;;;;;5352384;26;20468;-42
2024/04/22 04:42:30;;;;;;;2.90;2.60;;;10.70;84.10;;;;;;5331432;26;20533;-36
2024/04/22 04:45:04;;;;;;;3.63;3.30;;;10.70;84.10;;;;;;5303688;26;20591;-40
2024/04/22 04:47:30;;;;;;;3.83;3.20;;;10.70;84.10;;;;;;5338186;26;20513;-42
2024/04/22 04:49:59;;;;;;;3.27;2.80;;;10.80;84.30;;;;;;5369306;26;21122;-40
2024/04/22 04:52:26;;;;;;;3.60;3.00;;;10.70;84.30;;;;;;5333934;26;20446;-41
2024/04/22 04:54:54;;;;;;;3.93;3.40;;;10.70;84.30;;;;;;5322194;26;20522;-42
2024/04/22 04:57:24;;;;;;;3.17;2.70;;;10.70;84.30;;;;;;5340401;26;20551;-41
2024/04/22 04:59:59;;;;;;;4.43;3.30;;;10.70;84.40;;;;;;5332101;26;20454;-42
2024/04/22 05:02:25;;;;;;;2.70;2.40;;;10.70;84.40;;;;;;5347214;26;20453;-42
2024/04/22 05:05:08;;;;;;;3.70;3.07;;;10.70;84.40;;;;;;5345029;26;21038;-41
2024/04/22 05:07:37;;;;;;;3.33;3.03;;;10.70;84.50;;;;;;5330470;26;20466;-41
2024/04/22 05:10:12;;;;;;;3.43;3.03;;;10.70;84.50;;;;;;5308621;26;20846;-42
2024/04/22 05:12:48;;;;;;;3.37;2.63;;;10.70;84.60;;;;;;5360199;26;21418;-40
2024/04/22 05:15:27;;;;;;;3.27;2.80;;;10.70;84.60;;;;;;5343466;26;21517;-40
2024/04/22 05:17:59;;;;;;;4.20;3.40;;;10.70;84.60;;;;;;5340056;26;20454;-40
2024/04/22 05:20:29;;;;;;;3.00;2.40;;;10.60;84.60;;;;;;5336346;26;20473;-40
2024/04/22 05:22:57;;;;;;;4.00;3.20;;;10.70;84.70;;;;;;5331931;26;20454;-41
2024/04/22 05:25:26;;;;;;;3.97;3.57;;;10.70;84.70;;;;;;5313630;26;20460;-41
2024/04/22 05:27:55;;;;;;;3.53;3.20;;;10.70;84.80;;;;;;5315440;26;20525;-41
2024/04/22 05:30:24;;;;;;;4.27;2.90;;;10.60;84.70;;;;;;5294840;26;20462;-42
2024/04/22 05:32:50;;;;;;;3.67;2.90;;;10.70;84.80;;;;;;5311092;26;21189;-41
2024/04/22 05:38:06;;;;;;;3.70;3.30;;;10.60;84.70;;;;;;5262023;26;20526;-41
2024/04/22 05:40:38;;;;;;;3.33;3.00;;;10.60;84.80;;;;;;5336532;26;21525;-41
2024/04/22 05:43:06;;;;;;;4.10;3.03;;;10.60;84.80;;;;;;5375253;26;20924;-41
2024/04/22 05:45:36;;;;;;;3.30;2.90;;;10.60;84.90;;;;;;5338765;26;20548;-41
2024/04/22 05:48:02;;;;;;;4.00;3.03;;;10.60;84.90;;;;;;5344710;26;21435;-41
2024/04/22 05:50:28;;;;;;;4.00;2.97;;;10.60;84.90;;;;;;5348820;26;20780;-42
2024/04/22 05:52:54;;;;;;;4.80;3.20;;;10.60;84.90;;;;;;5341839;26;20499;-41
2024/04/22 05:55:24;;;;;;;3.73;3.33;;;10.60;85.00;;;;;;5315895;26;21013;-42
2024/04/22 05:57:51;;;;;;;3.90;3.50;;;10.60;85.00;;;;;;5282946;26;20471;-41
2024/04/22 06:00:19;;;;;;;3.87;3.47;;;10.60;85.00;;;;;;5380765;26;20457;-42
2024/04/22 06:02:46;;;;;;;3.87;3.10;;;10.60;85.00;;;;;;5325051;26;20472;-42
2024/04/22 06:05:14;;;;;;;3.70;3.40;;;10.60;85.10;;;;;;5327555;26;20465;-41
2024/04/22 06:07:41;;;;;;;4.00;3.60;;;10.60;85.10;;;;;;5342268;26;20469;-42
2024/04/22 06:10:10;;;;;;;3.77;3.37;;;10.60;85.20;;;;;;5327515;26;20508;-41
2024/04/22 06:12:36;;;;;;;5.53;4.00;;;10.60;85.20;;;;;;5317042;26;20480;-39
2024/04/22 06:15:16;;;;;;;4.13;3.70;;;10.60;85.20;;;;;;5380873;26;20512;-42
2024/04/22 06:17:43;;;;;;;6.43;3.40;;;10.60;85.20;;;;;;5311263;26;20567;-41
2024/04/22 06:20:12;;;;;;;4.40;3.30;;;10.60;85.20;;;;;;5348167;26;20448;-42
2024/04/22 06:22:40;;;;;;;4.07;3.30;;;10.60;85.40;;;;;;5317229;26;20452;-39
2024/04/22 06:25:08;;;;;;;5.40;3.93;;;10.60;85.40;;;;;;5320184;26;20456;-41
2024/04/22 06:27:37;;;;;;;4.60;3.57;;;10.50;85.30;;;;;;5325466;26;20511;-42
2024/04/22 06:30:04;;;;;;;5.20;3.37;;;10.60;86.20;;;;;;5324693;26;20812;-42
2024/04/22 06:32:34;;;;;;;5.73;3.50;;;10.60;85.40;;;;;;5336499;26;20514;-41
2024/04/22 06:35:10;;;;;;;3.93;3.50;;;10.50;85.40;;;;;;5324230;26;21037;-42
2024/04/22 06:37:39;;;;;;;4.47;3.70;;;10.50;85.40;;;;;;5348251;26;20460;-41
2024/04/22 06:40:07;;;;;;;3.83;3.43;;;10.60;85.60;;;;;;5352605;26;20529;-42
2024/04/22 06:42:36;;;;;;;6.10;3.53;;;10.50;85.50;;;;;;5353106;26;20481;-41
2024/04/22 06:45:05;;;;;;;3.90;3.37;;;10.60;85.70;;;;;;5349760;26;20476;-40
2024/04/22 06:47:34;;;;;;;3.43;3.00;;;10.60;85.70;;;;;;5339242;26;20515;-39
2024/04/22 06:50:01;;;;;;;3.70;3.17;;;10.50;85.60;;;;;;5337430;26;21249;-41
2024/04/22 06:52:31;;;;;;;4.30;3.70;;;10.50;85.50;;;;;;5324490;26;20940;-42
2024/04/22 06:54:58;;;;;;;3.13;2.83;;;10.60;85.80;;;;;;5313222;26;20532;-41
2024/04/22 06:57:30;;;;;;;5.43;3.53;;;10.50;85.60;;;;;;5352805;26;20523;-41
2024/04/22 06:59:58;;;;;;;4.43;3.37;;;10.50;85.60;;;;;;5345979;26;20616;-38
2024/04/22 07:02:26;;;;;;;4.20;3.63;;;10.60;85.70;;;;;;5346960;26;21286;-40
2024/04/22 07:04:54;;;;;;;4.20;3.13;;;10.60;85.70;;;;;;5310597;26;20616;-42
2024/04/22 07:07:21;;;;;;;4.90;3.90;;;10.60;85.70;;;;;;5324562;26;20465;-42
2024/04/22 07:09:49;;;;;;;4.27;3.20;;;10.60;85.70;;;;;;5317914;26;20593;-41
2024/04/22 07:12:17;;;;;;;3.93;3.63;;;10.60;85.80;;;;;;5371694;26;20567;-41
2024/04/22 07:14:46;;;;;;;5.80;3.50;;;10.60;85.80;;;;;;5311687;26;20474;-41
2024/04/22 07:17:15;;;;;;;4.57;3.10;;;10.60;85.80;;;;;;5346806;26;20708;-42
2024/04/22 07:19:42;;;;;;;5.10;3.27;;;10.60;85.90;;;;;;5367253;26;20486;-38
2024/04/22 07:22:10;;;;;;;3.43;3.03;;;10.60;85.90;;;;;;5325771;26;20499;-41
2024/04/22 07:24:37;;;;;;;4.03;3.33;;;10.60;85.90;;;;;;5353965;26;20461;-41
2024/04/22 07:27:05;;;;;;;5.17;3.87;;;10.60;85.90;;;;;;5325516;26;20545;-42
2024/04/22 07:29:33;;;;;;;4.07;3.13;;;10.60;86.00;;;;;;5294177;26;20532;-42
2024/04/22 07:32:05;;;;;;;3.23;2.93;;;10.60;86.00;;;;;;5340013;26;20478;-41
2024/04/22 07:34:33;;;;;;;4.57;3.40;;;10.60;86.00;;;;;;5384943;21;20489;-33
2024/04/22 07:37:29;;;;;;;4.20;3.70;;;10.60;85.80;;;;;;5295365;26;20571;-32
2024/04/22 07:40:16;;;;;;;3.30;3.00;;;10.60;85.80;;;;;;5325656;26;20482;-32
2024/04/22 07:42:44;;;;;;;4.10;3.10;;;10.60;85.80;;;;;;5324604;26;21005;-32
2024/04/22 07:45:13;;;;;;;3.70;3.30;;;10.70;85.90;;;;;;5325180;26;21064;-32
2024/04/22 07:47:42;;;;;;;3.63;2.90;;;10.70;85.80;;;;;;5323218;26;20640;-32
2024/04/22 07:50:10;;;;;;;6.23;3.13;;;10.60;85.50;;;;;;5324610;26;20984;-32
2024/04/22 07:52:38;;;;;;;6.63;4.20;;;10.70;85.50;;;;;;5295020;26;20580;-32
2024/04/22 07:55:07;;;;;;;4.47;3.30;;;10.70;85.40;;;;;;5293836;26;20462;-32
2024/04/22 07:57:38;;;;;;;3.80;3.40;;;10.70;85.40;;;;;;5244000;26;20465;-32
2024/04/22 08:00:05;;;;;;;4.87;3.27;;;10.70;85.50;;;;;;5327935;26;20580;-32
2024/04/22 08:02:38;;;;;;;5.00;3.47;;;10.70;85.30;;;;;;5324722;26;20466;-32
2024/04/22 08:05:05;;;;;;;4.50;3.40;;;10.70;85.40;;;;;;5323186;26;20446;-32
2024/04/22 08:07:33;;;;;;;3.77;2.97;;;10.70;85.40;;;;;;5323331;26;20466;-32
2024/04/22 08:10:01;;;;;;;3.83;3.07;;;10.80;85.50;;;;;;5324930;26;20958;-32
2024/04/22 08:12:28;;;;;;;3.07;2.77;;;10.80;85.30;;;;;;5298282;26;20553;-32
2024/04/22 08:14:56;;;;;;;4.40;3.23;;;10.80;85.40;;;;;;5328295;26;20485;-32
2024/04/22 08:17:25;;;;;;;4.57;2.80;;;10.80;85.20;;;;;;5326709;26;20992;-30
2024/04/22 08:19:55;;;;;;;4.40;2.90;;;10.80;85.00;;;;;;5325928;26;20465;-32
2024/04/22 08:22:24;;;;;;;3.50;3.20;;;10.80;84.90;;;;;;5327597;26;20463;-32
2024/04/22 08:24:52;;;;;;;4.33;3.10;;;10.80;85.90;;;;;;5271580;26;20545;-32
2024/04/22 08:27:24;;;;;;;3.53;3.23;;;10.90;85.10;;;;;;5325539;26;20518;-32
2024/04/22 08:29:53;;;;;;;4.37;3.20;;;10.90;85.30;;;;;;5294290;26;20466;-31
2024/04/22 08:32:24;;;;;;;4.60;3.10;;;10.90;85.10;;;;;;5322851;26;20494;-30
2024/04/22 08:34:50;;;;;;;4.80;3.73;;;10.90;85.00;;;;;;5293509;26;21027;-32
2024/04/22 08:37:21;;;;;;;5.03;3.63;;;10.90;85.10;;;;;;5300881;26;20466;-31
2024/04/22 08:39:47;;;;;;;4.87;3.30;;;10.90;85.10;;;;;;5324521;26;20566;-32
2024/04/22 08:42:18;;;;;;;3.70;3.07;;;10.90;85.20;;;;;;5322443;26;20450;-32
2024/04/22 08:44:44;;;;;;;4.27;3.20;;;11.00;85.20;;;;;;5321126;26;20457;-33
2024/04/22 08:47:11;;;;;;;4.83;3.53;;;11.00;84.90;;;;;;5324168;26;20556;-32
2024/04/22 08:49:37;;;;;;;2.93;2.53;;;11.00;84.90;;;;;;5293782;26;20564;-32
2024/04/22 08:52:03;;;;;;;2.97;2.40;;;11.00;84.80;;;;;;5322320;26;20981;-32
2024/04/22 08:54:33;;;;;;;3.80;3.07;;;11.00;85.00;;;;;;5293491;26;20466;-32
2024/04/22 08:56:59;;;;;;;3.53;3.07;;;11.00;84.80;;;;;;5294196;26;20524;-32
2024/04/22 08:59:25;;;;;;;3.13;2.83;;;11.00;84.60;;;;;;5322457;26;20485;-32
2024/04/22 09:02:01;;;;;;;3.23;2.93;;;11.10;84.60;;;;;;5321791;26;20588;-32
2024/04/22 09:04:27;;;;;;;5.40;4.23;;;11.00;84.60;;;;;;5323495;26;20450;-32
2024/04/22 09:06:53;;;;;;;4.70;3.57;;;11.10;84.60;;;;;;5324263;26;20446;-32
2024/04/22 09:09:21;;;;;;;4.80;3.40;;;11.10;84.40;;;;;;5293654;26;20531;-32
2024/04/22 09:11:54;;;;;;;4.27;3.20;;;11.10;84.50;;;;;;5323449;26;20939;-32
2024/04/22 09:14:25;;;;;;;4.83;3.60;;;11.10;84.60;;;;;;5321982;26;20572;-32
2024/04/22 09:16:51;;;;;;;4.70;3.70;;;11.10;84.60;;;;;;5321711;26;20504;-32
2024/04/22 09:19:22;;;;;;;6.50;3.67;;;11.10;84.70;;;;;;5320769;26;20461;-32
2024/04/22 09:21:52;;;;;;;5.47;3.87;;;11.10;84.70;;;;;;5323593;26;21171;-32
2024/04/22 09:24:18;;;;;;;6.53;4.70;;;11.20;84.90;;;;;;5320647;26;20828;-32
2024/04/22 09:26:44;;;;;;;9.43;5.93;;;11.20;85.00;;;;;;5322835;26;20462;-32
2024/04/22 09:29:16;;;;;;;8.30;5.87;;;11.20;84.90;;;;;;5322756;26;20453;-32
2024/04/22 09:31:44;;;;;;;8.27;6.27;;;11.20;84.90;;;;;;5321949;26;20459;-32
2024/04/22 09:34:11;;;;;;;8.67;6.10;;;11.20;84.80;;;;;;5320782;26;20470;-32
2024/04/22 09:36:39;;;;;;;10.10;5.90;;;11.20;84.70;;;;;;5323885;26;21550;-32
2024/04/22 09:39:07;;;;;;;10.17;6.63;;;11.30;84.90;;;;;;5292703;26;21175;-32
2024/04/22 09:41:41;;;;;;;7.73;5.73;;;11.30;85.00;;;;;;5291948;26;20587;-32
2024/04/22 09:44:07;;;;;;;11.50;7.00;;;11.30;85.00;;;;;;5320541;26;20503;-32
2024/04/22 09:46:37;;;;;;;7.60;6.03;;;11.30;85.00;;;;;;5319730;26;20502;-32
2024/04/22 09:49:04;;;;;;;7.60;5.87;;;11.30;84.80;;;;;;5323368;26;21010;-32
2024/04/22 09:51:36;;;;;;;9.03;6.83;;;11.30;83.90;;;;;;5297772;26;20478;-32
2024/04/22 09:54:05;;;;;;;9.17;5.90;;;11.30;83.90;;;;;;5324986;26;20541;-32
2024/04/22 09:56:38;;;;;;;8.13;5.83;;;11.30;83.60;;;;;;5322834;26;20506;-32
2024/04/22 09:59:05;;;;;;;8.27;5.50;;;11.40;83.40;;;;;;5321908;26;20997;-32
2024/04/22 10:01:31;;;;;;;10.20;6.73;;;11.40;83.60;;;;;;5319952;26;20576;-32
2024/04/22 10:03:58;;;;;;;10.03;5.80;;;11.40;84.00;;;;;;5321445;26;20555;-32
2024/04/22 10:06:31;;;;;;;11.50;5.40;;;11.40;84.10;;;;;;5322802;26;21447;-32
2024/04/22 10:09:00;;;;;;;6.50;5.13;;;11.40;84.20;;;;;;5322941;26;20537;-32
2024/04/22 10:11:32;;;;;;;8.13;5.30;;;11.40;83.90;;;;;;5323179;26;20462;-32
2024/04/22 10:14:16;;;;;;;5.70;4.63;;;11.40;84.00;;;;;;5321047;26;20461;-32
2024/04/22 10:17:01;;;;;;;7.33;4.90;;;11.40;84.00;;;;;;5323359;26;21037;-32
2024/04/22 10:19:29;;;;;;;7.73;4.90;;;11.40;83.80;;;;;;5321885;26;20466;-32
2024/04/22 10:22:00;;;;;;;6.30;4.57;;;11.40;83.60;;;;;;5320321;26;20546;-32
2024/04/22 10:24:36;;;;;;;5.97;4.90;;;11.40;83.80;;;;;;5320246;26;20573;-32
2024/04/22 10:27:13;;;;;;;6.83;4.80;;;11.40;84.00;;;;;;5320597;26;20447;-32
2024/04/22 10:29:43;;;;;;;7.37;5.30;;;11.40;84.00;;;;;;5321718;26;20442;-32
2024/04/22 10:32:09;;;;;;;6.03;4.10;;;11.50;84.10;;;;;;5320968;26;21418;-32
2024/04/22 10:34:41;;;;;;;6.43;4.33;;;11.50;84.20;;;;;;5322105;26;20560;-32
2024/04/22 10:37:07;;;;;;;6.47;4.73;;;11.50;84.10;;;;;;5321546;26;20564;-32
2024/04/22 10:39:35;;;;;;;4.53;3.70;;;11.50;84.20;;;;;;5321328;26;20450;-32
2024/04/22 10:42:06;;;;;;;4.03;3.50;;;11.50;84.10;;;;;;5319946;26;20601;-32
2024/04/22 10:44:43;;;;;;;5.40;3.90;;;11.50;84.00;;;;;;5263270;26;20509;-32
2024/04/22 10:47:10;;;;;;;5.83;4.47;;;11.50;83.80;;;;;;5321287;26;20441;-32
2024/04/22 10:49:36;;;;;;;5.50;4.37;;;11.60;84.00;;;;;;5292009;26;21087;-32
2024/04/22 10:52:03;;;;;;;6.60;5.43;;;11.60;83.80;;;;;;5321280;26;20589;-32
2024/04/22 10:54:38;;;;;;;6.73;5.03;;;11.60;83.80;;;;;;5323532;26;20497;-32
2024/04/22 10:57:08;;;;;;;7.53;5.20;;;11.60;83.80;;;;;;5325251;26;21095;-32
2024/04/22 10:59:34;;;;;;;9.53;6.10;;;11.60;83.70;;;;;;5323116;26;21129;-32
2024/04/22 11:02:01;;;;;;;11.30;5.70;;;11.60;84.50;;;;;;5323760;26;20510;-32
2024/04/22 11:04:28;;;;;;;8.33;6.20;;;11.60;83.80;;;;;;5332950;26;20462;-32
2024/04/22 11:06:57;;;;;;;10.80;6.93;;;11.60;83.90;;;;;;5326696;26;20442;-32
2024/04/22 11:09:26;;;;;;;9.30;6.20;;;11.60;83.90;;;;;;5328705;26;20518;-32
2024/04/22 11:11:53;;;;;;;9.70;7.10;;;11.60;84.10;;;;;;5331407;26;20470;-32
2024/04/22 11:14:19;;;;;;;9.20;6.20;;;11.60;84.20;;;;;;5324438;26;20474;-32
2024/04/22 11:16:45;;;;;;;9.90;6.87;;;11.60;84.40;;;;;;5325403;26;21058;-32
2024/04/22 11:19:11;;;;;;;9.83;6.73;;;11.60;84.50;;;;;;5294152;26;20513;-32
2024/04/22 11:21:38;;;;;;;8.77;6.27;;;11.70;84.50;;;;;;5325750;26;20663;-32
2024/04/22 11:24:04;;;;;;;8.70;6.50;;;11.70;84.60;;;;;;5322794;26;20469;-32
2024/04/22 11:26:32;;;;;;;10.50;6.23;;;11.70;84.50;;;;;;5324163;26;20450;-32
2024/04/22 11:29:01;;;;;;;9.40;6.20;;;11.70;84.60;;;;;;5324980;26;20577;-32
2024/04/22 11:31:27;;;;;;;7.63;5.93;;;11.70;84.70;;;;;;5322499;26;20589;-32
2024/04/22 11:33:56;;;;;;;9.40;6.53;;;11.70;84.70;;;;;;5295432;26;20462;-32
2024/04/22 11:36:25;;;;;;;9.87;7.30;;;11.70;84.60;;;;;;5326464;26;20502;-32
2024/04/22 11:38:51;;;;;;;7.70;6.60;;;11.70;84.70;;;;;;5330774;26;20510;-32
2024/04/22 11:41:17;;;;;;;8.03;6.50;;;11.70;84.80;;;;;;5323551;26;20466;-32
2024/04/22 11:43:43;;;;;;;9.00;6.10;;;11.80;84.80;;;;;;5325591;26;20653;-32
2024/04/22 11:46:09;;;;;;;6.20;5.13;;;11.80;84.70;;;;;;5322216;26;20442;-32
2024/04/22 11:48:35;;;;;;;8.47;6.20;;;11.80;84.70;;;;;;5324778;26;20530;-32
2024/04/22 11:51:01;;;;;;;7.87;5.90;;;11.80;84.60;;;;;;5325469;26;20596;-32
2024/04/22 11:53:30;;;;;;;6.33;5.63;;;11.80;84.80;;;;;;5323357;26;20960;-32
2024/04/22 11:55:56;;;;;;;6.13;4.90;;;11.80;84.90;;;;;;5295264;26;20438;-32
2024/04/22 11:58:25;;;;;;;8.70;6.17;;;11.80;84.80;;;;;;5325180;26;20564;-32
2024/04/22 12:00:51;;;;;;;6.63;5.47;;;11.80;85.00;;;;;;5323896;26;20604;-32
2024/04/22 12:03:17;;;;;;;7.20;5.40;;;11.80;85.00;;;;;;5325059;26;20506;-32
2024/04/22 12:05:43;;;;;;;6.70;5.50;;;11.80;85.00;;;;;;5326355;26;20462;-32
2024/04/22 12:08:10;;;;;;;6.67;5.60;;;11.80;85.10;;;;;;5322741;26;20461;-32
2024/04/22 12:10:39;;;;;;;6.33;5.17;;;11.90;85.20;;;;;;5324612;26;20574;-32
2024/04/22 12:13:05;;;;;;;8.67;4.30;;;11.90;85.20;;;;;;5324351;26;20442;-32
2024/04/22 12:15:31;;;;;;;7.10;4.90;;;11.90;85.40;;;;;;5323744;26;20516;-32
2024/04/22 12:17:57;;;;;;;4.93;4.43;;;11.90;85.40;;;;;;5325345;26;20533;-32
2024/04/22 12:20:23;;;;;;;5.13;4.27;;;11.90;85.40;;;;;;5323335;26;21048;-32
2024/04/22 12:22:49;;;;;;;6.67;5.40;;;11.90;85.40;;;;;;5293865;26;21152;-32
2024/04/22 12:25:20;;;;;;;5.27;4.50;;;12.00;85.30;;;;;;5323577;26;20466;-32
2024/04/22 12:27:46;;;;;;;5.97;4.23;;;12.00;85.00;;;;;;5322980;26;20446;-32
2024/04/22 12:30:15;;;;;;;6.47;4.10;;;12.00;84.90;;;;;;5324546;26;21475;-32
2024/04/22 12:32:41;;;;;;;5.27;4.77;;;12.00;84.70;;;;;;5323902;26;20462;-32
2024/04/22 12:35:07;;;;;;;5.57;5.07;;;12.00;84.60;;;;;;5325158;26;20505;-32
2024/04/22 12:37:34;;;;;;;4.37;3.97;;;12.10;84.70;;;;;;5326134;26;20506;-32
2024/04/22 12:40:04;;;;;;;4.77;4.27;;;12.10;84.40;;;;;;5325410;26;21055;-32
2024/04/22 12:42:31;;;;;;;5.33;4.40;;;12.10;84.80;;;;;;5322778;26;20962;-32
2024/04/22 12:44:58;;;;;;;4.67;4.03;;;12.10;84.80;;;;;;5323704;26;20510;-32
2024/04/22 12:53:02;;;;;;;5.50;3.97;;;12.20;85.20;;;;;;5323693;26;20661;-32
2024/04/22 12:55:28;;;;;;;5.07;4.57;;;12.20;84.10;;;;;;5322381;26;20458;-32
2024/04/22 12:58:06;;;;;;;6.03;4.40;;;12.20;84.30;;;;;;5324134;26;20446;-32
2024/04/22 13:00:34;;;;;;;4.53;4.13;;;12.20;84.40;;;;;;5323898;26;20529;-32
2024/04/22 13:03:04;;;;;;;4.20;3.53;;;12.20;84.50;;;;;;5324416;26;21248;-32
2024/04/22 13:05:36;;;;;;;4.43;4.03;;;12.20;84.60;;;;;;5324913;26;20591;-32
2024/04/22 13:08:04;;;;;;;4.87;3.93;;;12.20;84.80;;;;;;5321667;26;20462;-32
2024/04/22 13:10:39;;;;;;;4.50;4.10;;;12.20;84.90;;;;;;5304062;26;20506;-32